Search for airport 
image banner adimage banner ad
image banner ad

WARR - Surabaya/Juanda

Located in Surabaya, Indonesia

ICAO - WARR, IATA - SUB

Data provided by Airmate  

General information

Coordinates: S7°22'51" E112°47'11"
Elevation is 11 feet MSL.
 
Rated:
View ratings: [VIEW]


View others Airports in Jawa Timur

Operational data

Open for public use
Current time UTC:
Current local time:
Weather
TAF: TAF WARR 202300Z 2100/2200 27005KT 5000 HZ FEW020 BECMG 2101/2103 11010KT 9999 NSW BECMG 2117/2119 26005KT 5000 HZ
View NOTAMs / SUP AIP / TFR affecting this airport [VIEW]
Communications frequencies: [VIEW]

Runways:

RWY identifierQFULength (ft)Width (ft)SurfaceLDA (ft)
1099°9843148ASP
28279°9843148

Airport contact information

Address: Surabaya Indonesia

Satellite view of WARR